createdAt,value
2022-09-06T00:00:00.464Z,100490
2022-09-06T00:01:00.448Z,100490
2022-09-06T00:02:00.272Z,100490
2022-09-06T00:03:00.650Z,100490
2022-09-06T00:04:00.329Z,100490
2022-09-06T00:05:00.812Z,100490
2022-09-06T00:06:04.589Z,100490
2022-09-06T00:07:00.259Z,100478
2022-09-06T00:08:01.877Z,100478
2022-09-06T00:09:00.257Z,100478
2022-09-06T00:10:00.279Z,100478
2022-09-06T00:11:01.435Z,100478
2022-09-06T00:12:00.274Z,100468
2022-09-06T00:13:01.498Z,100468
2022-09-06T00:14:00.325Z,100468
2022-09-06T00:15:00.340Z,100468
2022-09-06T00:16:04.519Z,100468
2022-09-06T00:17:00.291Z,100469
2022-09-06T00:18:01.105Z,100469
2022-09-06T00:19:00.531Z,100469
2022-09-06T00:20:00.635Z,100469
2022-09-06T00:21:00.269Z,100469
2022-09-06T00:22:00.442Z,100468
2022-09-06T00:23:01.686Z,100468
2022-09-06T00:24:00.393Z,100468
2022-09-06T00:25:00.274Z,100468
2022-09-06T00:26:01.109Z,100468
2022-09-06T00:27:00.262Z,100476
2022-09-06T00:28:01.613Z,100476
2022-09-06T00:29:00.308Z,100476
2022-09-06T00:30:00.304Z,100476
2022-09-06T00:31:08.564Z,100476
2022-09-06T00:32:00.563Z,100482
2022-09-06T00:33:00.285Z,100482
2022-09-06T00:34:00.290Z,100482
2022-09-06T00:35:00.263Z,100482
2022-09-06T00:36:00.346Z,100482
2022-09-06T00:37:00.273Z,100487
2022-09-06T00:38:01.099Z,100487
2022-09-06T00:39:00.370Z,100487
2022-09-06T00:40:00.463Z,100487
2022-09-06T00:41:00.304Z,100487
2022-09-06T00:42:00.391Z,100490
2022-09-06T00:43:00.277Z,100490
2022-09-06T00:44:00.365Z,100490
2022-09-06T00:45:00.336Z,100490
2022-09-06T00:46:01.135Z,100490
2022-09-06T00:47:00.714Z,100488
2022-09-06T00:48:01.031Z,100488
2022-09-06T00:49:04.409Z,100488
2022-09-06T00:50:01.484Z,100488
2022-09-06T00:51:02.893Z,100488
2022-09-06T00:52:02.366Z,100486
2022-09-06T00:53:00.449Z,100486
2022-09-06T00:54:02.991Z,100486
2022-09-06T00:55:00.727Z,100486
2022-09-06T00:56:00.570Z,100486
2022-09-06T00:57:00.703Z,100479
2022-09-06T00:58:00.389Z,100479
2022-09-06T00:59:00.575Z,100479
2022-09-06T01:00:01.177Z,100479
2022-09-06T01:01:00.290Z,100479
2022-09-06T01:02:00.409Z,100473
2022-09-06T01:03:00.441Z,100473
2022-09-06T01:04:00.677Z,100473
2022-09-06T01:05:01.340Z,100473
2022-09-06T01:06:01.263Z,100473
2022-09-06T01:07:00.244Z,100476
2022-09-06T01:08:07.469Z,100476
2022-09-06T01:09:06.164Z,100476
2022-09-06T01:10:10.211Z,100476
2022-09-06T01:11:09.104Z,100476
2022-09-06T01:12:00.239Z,100469
2022-09-06T01:13:00.240Z,100469
2022-09-06T01:14:09.416Z,100469
2022-09-06T01:15:10.236Z,100469
2022-09-06T01:16:10.312Z,100469
2022-09-06T01:17:07.621Z,100463
2022-09-06T01:18:07.828Z,100463
2022-09-06T01:19:10.212Z,100463
2022-09-06T01:20:01.304Z,100463
2022-09-06T01:21:10.166Z,100463
2022-09-06T01:22:10.167Z,100467
2022-09-06T01:23:10.198Z,100467
2022-09-06T01:24:10.215Z,100467
2022-09-06T01:25:03.574Z,100467
2022-09-06T01:26:10.165Z,100467
2022-09-06T01:27:10.199Z,100475
2022-09-06T01:28:07.954Z,100475
2022-09-06T01:29:01.266Z,100475
2022-09-06T01:30:05.576Z,100475
2022-09-06T01:31:08.008Z,100475
2022-09-06T01:32:06.670Z,100461
2022-09-06T01:33:10.198Z,100461
2022-09-06T01:34:07.785Z,100461
2022-09-06T01:35:10.208Z,100461
2022-09-06T01:36:02.206Z,100461
2022-09-06T01:37:09.849Z,100459
2022-09-06T01:38:00.786Z,100459
2022-09-06T01:39:00.803Z,100459
2022-09-06T01:40:00.403Z,100459
2022-09-06T01:41:00.388Z,100459
2022-09-06T01:42:06.153Z,100450
2022-09-06T01:43:00.347Z,100450
2022-09-06T01:44:00.348Z,100450
2022-09-06T01:45:02.332Z,100450
2022-09-06T01:46:03.707Z,100450
2022-09-06T01:47:00.236Z,100452
2022-09-06T01:48:10.201Z,100452
2022-09-06T01:49:10.204Z,100452
2022-09-06T01:50:03.561Z,100452
2022-09-06T01:51:00.251Z,100452
2022-09-06T01:52:03.620Z,100461
2022-09-06T01:53:00.293Z,100461
2022-09-06T01:54:01.296Z,100461
2022-09-06T01:55:06.878Z,100461
2022-09-06T01:56:07.849Z,100461
2022-09-06T01:57:10.242Z,100462
2022-09-06T01:58:00.252Z,100462
2022-09-06T01:59:00.252Z,100462
2022-09-06T02:00:02.925Z,100462
2022-09-06T02:01:10.263Z,100462
2022-09-06T02:02:00.251Z,100447
2022-09-06T02:03:10.216Z,100447
2022-09-06T02:04:10.219Z,100447
2022-09-06T02:05:05.648Z,100447
2022-09-06T02:06:03.728Z,100447
2022-09-06T02:07:02.522Z,100447
2022-09-06T02:08:03.421Z,100447
2022-09-06T02:09:03.652Z,100447
2022-09-06T02:10:10.238Z,100447
2022-09-06T02:11:02.842Z,100447
2022-09-06T02:12:01.328Z,100438
2022-09-06T02:13:01.268Z,100438
2022-09-06T02:14:04.078Z,100438
2022-09-06T02:15:04.957Z,100438
2022-09-06T02:16:02.084Z,100438
2022-09-06T02:17:01.610Z,100431
2022-09-06T02:18:03.514Z,100431
2022-09-06T02:19:10.171Z,100431
2022-09-06T02:20:04.125Z,100431
2022-09-06T02:21:01.848Z,100431
2022-09-06T02:22:03.668Z,100414
2022-09-06T02:23:02.659Z,100414
2022-09-06T02:24:01.218Z,100414
2022-09-06T02:25:01.414Z,100414
2022-09-06T02:26:10.142Z,100414
2022-09-06T02:27:00.312Z,100402
2022-09-06T02:28:00.488Z,100402
2022-09-06T02:29:00.805Z,100402
2022-09-06T02:30:00.328Z,100402
2022-09-06T02:31:02.759Z,100402
2022-09-06T02:32:10.215Z,100407
2022-09-06T02:33:05.933Z,100407
2022-09-06T02:34:00.942Z,100407
2022-09-06T02:35:06.500Z,100407
2022-09-06T02:36:03.363Z,100407
2022-09-06T02:37:00.529Z,100408
2022-09-06T02:38:01.045Z,100408
2022-09-06T02:39:00.388Z,100408
2022-09-06T02:40:00.436Z,100408
2022-09-06T02:41:00.797Z,100408
2022-09-06T02:42:00.571Z,100411
2022-09-06T02:43:00.261Z,100411
2022-09-06T02:44:01.461Z,100411
2022-09-06T02:45:00.345Z,100411
2022-09-06T02:46:00.357Z,100411
2022-09-06T02:47:00.284Z,100405
2022-09-06T02:48:00.345Z,100405
2022-09-06T02:49:00.400Z,100405
2022-09-06T02:50:00.279Z,100405
2022-09-06T02:51:02.085Z,100405
2022-09-06T02:52:00.356Z,100395
2022-09-06T02:53:04.998Z,100395
2022-09-06T02:54:00.274Z,100395
2022-09-06T02:55:00.283Z,100395
2022-09-06T02:56:00.892Z,100395
2022-09-06T02:57:00.270Z,100389
2022-09-06T02:58:00.288Z,100389
2022-09-06T02:59:00.310Z,100389
2022-09-06T03:00:00.479Z,100389
2022-09-06T03:01:00.603Z,100389
2022-09-06T03:02:00.395Z,100381
2022-09-06T03:03:00.338Z,100381
2022-09-06T03:04:00.397Z,100381
2022-09-06T03:05:00.305Z,100381
2022-09-06T03:06:00.271Z,100381
2022-09-06T03:07:00.352Z,100374
2022-09-06T03:08:00.316Z,100374
2022-09-06T03:09:00.620Z,100374
2022-09-06T03:10:00.404Z,100374
2022-09-06T03:11:00.490Z,100374
2022-09-06T03:12:00.321Z,100378
2022-09-06T03:13:00.324Z,100378
2022-09-06T03:14:00.307Z,100378
2022-09-06T03:15:05.593Z,100378
2022-09-06T03:16:01.125Z,100378
2022-09-06T03:17:00.615Z,100383
2022-09-06T03:18:00.373Z,100383
2022-09-06T03:19:00.262Z,100383
2022-09-06T03:20:00.439Z,100383
2022-09-06T03:21:00.475Z,100383
2022-09-06T03:22:00.286Z,100368
2022-09-06T03:23:00.290Z,100368
2022-09-06T03:24:00.327Z,100368
2022-09-06T03:25:00.308Z,100368
2022-09-06T03:26:00.505Z,100368
2022-09-06T03:27:00.279Z,100373
2022-09-06T03:28:00.393Z,100373
2022-09-06T03:29:00.312Z,100373
2022-09-06T03:30:00.323Z,100373
2022-09-06T03:31:00.362Z,100373
2022-09-06T03:32:00.397Z,100374
2022-09-06T03:33:02.856Z,100374
2022-09-06T03:34:00.274Z,100374
2022-09-06T03:35:00.286Z,100374
2022-09-06T03:36:01.262Z,100374
2022-09-06T03:37:00.285Z,100358
2022-09-06T03:38:00.287Z,100358
2022-09-06T03:39:00.283Z,100358
2022-09-06T03:40:00.613Z,100358
2022-09-06T03:41:00.286Z,100358
2022-09-06T03:42:00.425Z,100357
2022-09-06T03:43:00.309Z,100357
2022-09-06T03:44:00.351Z,100357
2022-09-06T03:45:00.293Z,100357
2022-09-06T03:46:00.382Z,100357
2022-09-06T03:47:00.465Z,100356
2022-09-06T03:48:00.292Z,100356
2022-09-06T03:49:00.640Z,100356
2022-09-06T03:50:00.405Z,100356
2022-09-06T03:51:00.383Z,100356
2022-09-06T03:52:00.487Z,100359
2022-09-06T03:53:00.265Z,100359
2022-09-06T03:54:00.352Z,100359
2022-09-06T03:55:00.353Z,100359
2022-09-06T03:56:00.288Z,100359
2022-09-06T03:57:00.388Z,100364
2022-09-06T03:58:00.335Z,100364
2022-09-06T03:59:00.314Z,100364
2022-09-06T04:00:00.373Z,100364
2022-09-06T04:01:03.025Z,100364
2022-09-06T04:02:00.534Z,100359
2022-09-06T04:03:01.912Z,100359
2022-09-06T04:04:00.449Z,100359
2022-09-06T04:05:00.286Z,100359
2022-09-06T04:06:00.604Z,100359
2022-09-06T04:07:00.278Z,100350
2022-09-06T04:08:00.374Z,100350
2022-09-06T04:09:00.273Z,100350
2022-09-06T04:10:00.272Z,100350
2022-09-06T04:11:00.355Z,100350
2022-09-06T04:12:00.337Z,100350
2022-09-06T04:13:00.331Z,100350
2022-09-06T04:14:01.042Z,100350
2022-09-06T04:15:00.321Z,100350
2022-09-06T04:16:00.324Z,100350
2022-09-06T04:17:00.319Z,100350
2022-09-06T04:18:00.267Z,100350
2022-09-06T04:19:00.307Z,100350
2022-09-06T04:20:00.380Z,100350
2022-09-06T04:21:00.274Z,100350
2022-09-06T04:22:00.295Z,100336
2022-09-06T04:23:00.274Z,100336
2022-09-06T04:24:00.469Z,100336
2022-09-06T04:25:00.335Z,100336
2022-09-06T04:26:00.272Z,100336
2022-09-06T04:27:00.285Z,100334
2022-09-06T04:28:00.370Z,100334
2022-09-06T04:29:00.338Z,100334
2022-09-06T04:30:00.453Z,100334
2022-09-06T04:31:04.618Z,100334
2022-09-06T04:32:00.467Z,100346
2022-09-06T04:33:00.286Z,100346
2022-09-06T04:34:00.315Z,100346
2022-09-06T04:35:00.355Z,100346
2022-09-06T04:36:01.023Z,100346
2022-09-06T04:37:00.347Z,100338
2022-09-06T04:38:00.535Z,100338
2022-09-06T04:39:00.270Z,100338
2022-09-06T04:40:00.446Z,100338
2022-09-06T04:41:00.887Z,100338
2022-09-06T04:42:00.297Z,100322
2022-09-06T04:43:00.280Z,100322
2022-09-06T04:44:00.313Z,100322
2022-09-06T04:45:00.319Z,100322
2022-09-06T04:46:02.133Z,100322
2022-09-06T04:47:07.461Z,100315
2022-09-06T04:48:00.332Z,100315
2022-09-06T04:49:00.273Z,100315
2022-09-06T04:50:00.565Z,100315
2022-09-06T04:51:00.252Z,100315
2022-09-06T04:52:00.280Z,100321
2022-09-06T04:53:00.262Z,100321
2022-09-06T04:54:00.279Z,100321
2022-09-06T04:55:00.280Z,100321
2022-09-06T04:56:00.369Z,100321
2022-09-06T04:57:00.373Z,100323
2022-09-06T04:58:00.498Z,100323
2022-09-06T04:59:00.305Z,100323
2022-09-06T05:00:00.416Z,100323
2022-09-06T05:01:00.344Z,100323
2022-09-06T05:02:00.336Z,100313
2022-09-06T05:03:00.365Z,100313
2022-09-06T05:04:00.327Z,100313
2022-09-06T05:05:00.315Z,100313
2022-09-06T05:06:04.815Z,100313
2022-09-06T05:07:01.920Z,100311
2022-09-06T05:08:00.327Z,100311
2022-09-06T05:09:00.275Z,100311
2022-09-06T05:10:00.279Z,100311
2022-09-06T05:11:00.304Z,100311
2022-09-06T05:12:00.356Z,100331
2022-09-06T05:13:00.329Z,100331
2022-09-06T05:14:00.319Z,100331
2022-09-06T05:15:00.311Z,100331
2022-09-06T05:16:00.798Z,100331
2022-09-06T05:17:00.275Z,100327
2022-09-06T05:18:00.796Z,100327
2022-09-06T05:19:00.288Z,100327
2022-09-06T05:20:00.279Z,100327
2022-09-06T05:21:00.433Z,100327
2022-09-06T05:22:00.274Z,100335
2022-09-06T05:23:00.295Z,100335
2022-09-06T05:24:00.320Z,100335
2022-09-06T05:25:00.363Z,100335
2022-09-06T05:26:00.349Z,100335
2022-09-06T05:27:00.360Z,100323
2022-09-06T05:28:00.341Z,100323
2022-09-06T05:29:00.301Z,100323
2022-09-06T05:30:00.342Z,100323
2022-09-06T05:31:10.194Z,100323
2022-09-06T05:32:00.388Z,100316
2022-09-06T05:33:00.274Z,100316
2022-09-06T05:34:00.297Z,100316
2022-09-06T05:35:00.264Z,100316
2022-09-06T05:36:00.358Z,100316
2022-09-06T05:37:00.268Z,100315
2022-09-06T05:38:00.319Z,100315
2022-09-06T05:39:00.292Z,100315
2022-09-06T05:40:00.431Z,100315
2022-09-06T05:41:00.295Z,100315
2022-09-06T05:42:00.573Z,100317
2022-09-06T05:43:00.253Z,100317
2022-09-06T05:44:00.294Z,100317
2022-09-06T05:45:00.744Z,100317
2022-09-06T05:46:00.395Z,100317
2022-09-06T05:47:00.336Z,100334
2022-09-06T05:48:00.325Z,100334
2022-09-06T05:49:00.346Z,100334
2022-09-06T05:50:01.090Z,100334
2022-09-06T05:51:03.120Z,100334
2022-09-06T05:52:00.359Z,100329
2022-09-06T05:53:00.291Z,100329
2022-09-06T05:54:00.342Z,100329
2022-09-06T05:55:00.688Z,100329
2022-09-06T05:56:00.435Z,100329
2022-09-06T05:57:00.479Z,100328
2022-09-06T05:58:00.269Z,100328
2022-09-06T05:59:00.268Z,100328
2022-09-06T06:00:00.424Z,100328
2022-09-06T06:01:06.921Z,100328
2022-09-06T06:02:03.231Z,100313
2022-09-06T06:03:00.276Z,100313
2022-09-06T06:04:01.349Z,100313
2022-09-06T06:05:00.272Z,100313
2022-09-06T06:06:00.507Z,100313
2022-09-06T06:07:00.267Z,100298
2022-09-06T06:08:00.347Z,100298
2022-09-06T06:09:00.411Z,100298
2022-09-06T06:10:00.389Z,100298
2022-09-06T06:11:00.426Z,100298
2022-09-06T06:12:00.296Z,100298
2022-09-06T06:13:00.321Z,100298
2022-09-06T06:14:01.366Z,100298
2022-09-06T06:15:00.296Z,100298
2022-09-06T06:16:00.678Z,100298
2022-09-06T06:17:00.676Z,100307
2022-09-06T06:18:00.268Z,100307
2022-09-06T06:19:00.256Z,100307
2022-09-06T06:20:00.366Z,100307
2022-09-06T06:21:10.185Z,100307
2022-09-06T06:22:00.337Z,100318
2022-09-06T06:23:00.270Z,100318
2022-09-06T06:24:01.379Z,100318
2022-09-06T06:25:00.301Z,100318
2022-09-06T06:26:00.276Z,100318
2022-09-06T06:27:00.267Z,100323
2022-09-06T06:28:00.255Z,100323
2022-09-06T06:29:00.278Z,100323
2022-09-06T06:30:00.357Z,100323
2022-09-06T06:31:00.838Z,100323
2022-09-06T06:32:00.450Z,100329
2022-09-06T06:33:00.284Z,100329
2022-09-06T06:34:00.716Z,100329
2022-09-06T06:35:00.355Z,100329
2022-09-06T06:36:00.721Z,100329
2022-09-06T06:37:00.289Z,100326
2022-09-06T06:38:00.263Z,100326
2022-09-06T06:39:01.064Z,100326
2022-09-06T06:40:00.585Z,100326
2022-09-06T06:41:04.527Z,100326
2022-09-06T06:42:00.279Z,100346
2022-09-06T06:43:00.303Z,100346
2022-09-06T06:44:01.540Z,100346
2022-09-06T06:45:00.266Z,100346
2022-09-06T06:46:00.357Z,100346
2022-09-06T06:47:00.274Z,100334
2022-09-06T06:48:00.266Z,100334
2022-09-06T06:49:00.272Z,100334
2022-09-06T06:50:00.286Z,100334
2022-09-06T06:51:00.296Z,100334
2022-09-06T06:52:00.262Z,100318
2022-09-06T06:53:00.303Z,100318
2022-09-06T06:54:00.279Z,100318
2022-09-06T06:55:00.274Z,100318
2022-09-06T06:56:00.742Z,100318
2022-09-06T06:57:00.282Z,100333
2022-09-06T06:58:00.523Z,100333
2022-09-06T06:59:01.654Z,100333
2022-09-06T07:00:00.336Z,100333
2022-09-06T07:01:00.421Z,100333
2022-09-06T07:02:00.412Z,100330
2022-09-06T07:03:00.485Z,100330
2022-09-06T07:04:00.489Z,100330
2022-09-06T07:05:00.682Z,100330
2022-09-06T07:06:13.687Z,100330
2022-09-06T07:07:30.604Z,100335
2022-09-06T07:08:00.646Z,100335
2022-09-06T07:09:00.272Z,100335
2022-09-06T07:11:00.288Z,100335
2022-09-06T07:12:00.309Z,100344
2022-09-06T07:13:00.413Z,100344
2022-09-06T07:14:00.274Z,100344
2022-09-06T07:15:00.298Z,100344
2022-09-06T07:16:10.218Z,100344
2022-09-06T07:17:00.434Z,100336
2022-09-06T07:18:00.273Z,100336
2022-09-06T07:19:00.655Z,100336
2022-09-06T07:20:16.173Z,100336
2022-09-06T07:22:04.421Z,100343
2022-09-06T07:24:08.174Z,100343
2022-09-06T07:25:00.268Z,100343
2022-09-06T07:26:00.309Z,100343
2022-09-06T07:28:05.666Z,100338
2022-09-06T07:29:00.771Z,100338
2022-09-06T07:30:00.359Z,100338
2022-09-06T07:31:00.288Z,100338
2022-09-06T07:32:12.945Z,100340
2022-09-06T07:33:00.278Z,100340
2022-09-06T07:34:00.295Z,100340
2022-09-06T07:35:00.272Z,100340
2022-09-06T07:36:01.123Z,100340
2022-09-06T07:37:00.320Z,100341
2022-09-06T07:38:00.576Z,100341
2022-09-06T07:39:00.276Z,100341
2022-09-06T07:40:00.554Z,100341
2022-09-06T07:41:02.059Z,100341
2022-09-06T07:42:00.261Z,100352
2022-09-06T07:43:00.273Z,100352
2022-09-06T07:44:00.327Z,100352
2022-09-06T07:45:00.307Z,100352
2022-09-06T07:46:03.151Z,100352
2022-09-06T07:48:00.399Z,100348
2022-09-06T07:49:02.540Z,100348
2022-09-06T07:51:08.520Z,100348
2022-09-06T07:52:00.478Z,100351
2022-09-06T07:54:28.935Z,100351
2022-09-06T07:55:00.260Z,100351
2022-09-06T07:56:01.287Z,100351
2022-09-06T07:57:00.282Z,100349
2022-09-06T07:58:00.265Z,100349
2022-09-06T07:59:00.263Z,100349
2022-09-06T08:00:00.489Z,100349
2022-09-06T08:01:10.230Z,100349
2022-09-06T08:02:00.362Z,100348
2022-09-06T08:03:00.316Z,100348
2022-09-06T08:04:01.838Z,100348
2022-09-06T08:05:00.304Z,100348
2022-09-06T08:09:00.618Z,100334
2022-09-06T08:10:00.276Z,100334
2022-09-06T08:11:00.349Z,100334
2022-09-06T08:12:00.568Z,100334
2022-09-06T08:13:00.342Z,100334
2022-09-06T08:14:01.077Z,100334
2022-09-06T08:15:00.279Z,100334
2022-09-06T08:16:01.516Z,100334
2022-09-06T08:17:00.713Z,100337
2022-09-06T08:18:00.318Z,100337
2022-09-06T08:19:02.117Z,100337
2022-09-06T08:20:00.788Z,100337
2022-09-06T08:21:12.212Z,100337
2022-09-06T08:22:00.304Z,100319
2022-09-06T08:23:00.274Z,100319
2022-09-06T08:24:01.823Z,100319
2022-09-06T08:25:00.281Z,100319
2022-09-06T08:26:02.179Z,100319
2022-09-06T08:27:00.708Z,100313
2022-09-06T08:28:00.305Z,100313
2022-09-06T08:29:02.783Z,100313
2022-09-06T08:30:00.273Z,100313
2022-09-06T08:31:08.582Z,100313
2022-09-06T08:32:00.342Z,100313
2022-09-06T08:33:00.446Z,100313
2022-09-06T08:34:00.817Z,100313
2022-09-06T08:35:00.276Z,100313
2022-09-06T08:36:00.588Z,100313
2022-09-06T08:37:00.267Z,100314
2022-09-06T08:38:00.273Z,100314
2022-09-06T08:39:03.450Z,100314
2022-09-06T08:40:00.447Z,100314
2022-09-06T08:41:09.498Z,100314
2022-09-06T08:42:01.072Z,100311
2022-09-06T08:43:00.651Z,100311
2022-09-06T08:45:00.387Z,100311
2022-09-06T08:46:00.544Z,100311
2022-09-06T08:47:05.472Z,100315
2022-09-06T08:48:00.351Z,100315
2022-09-06T08:49:00.638Z,100315
2022-09-06T08:50:02.102Z,100315
2022-09-06T08:51:10.058Z,100315
2022-09-06T08:52:05.283Z,100324
2022-09-06T08:53:17.626Z,100324
2022-09-06T08:54:05.307Z,100324
2022-09-06T08:55:00.256Z,100324
2022-09-06T08:56:09.665Z,100324
2022-09-06T08:57:03.015Z,100341
2022-09-06T08:58:10.201Z,100341
2022-09-06T08:59:00.629Z,100341
2022-09-06T09:00:02.299Z,100341
2022-09-06T09:01:02.309Z,100341
2022-09-06T09:02:08.452Z,100340
2022-09-06T09:03:07.685Z,100340
2022-09-06T09:04:02.839Z,100340
2022-09-06T09:05:03.151Z,100340
2022-09-06T09:06:00.383Z,100340
2022-09-06T09:07:08.746Z,100336
2022-09-06T09:08:05.296Z,100336
2022-09-06T09:09:05.095Z,100336
2022-09-06T09:10:02.212Z,100336
2022-09-06T09:11:01.969Z,100336
2022-09-06T09:12:00.895Z,100334
2022-09-06T09:13:02.471Z,100334
2022-09-06T09:14:03.597Z,100334
2022-09-06T09:15:04.501Z,100334
2022-09-06T09:16:00.426Z,100334
2022-09-06T09:17:10.168Z,100346
2022-09-06T09:18:00.325Z,100346
2022-09-06T09:19:01.730Z,100346
2022-09-06T09:20:00.320Z,100346
2022-09-06T09:21:00.523Z,100346
2022-09-06T09:22:00.322Z,100372
2022-09-06T09:23:00.685Z,100372
2022-09-06T09:24:03.437Z,100372
2022-09-06T09:25:01.040Z,100372
2022-09-06T09:26:03.718Z,100372
2022-09-06T09:27:05.737Z,100368
2022-09-06T09:28:01.159Z,100368
2022-09-06T09:29:02.832Z,100368
2022-09-06T09:31:01.048Z,100368
2022-09-06T09:32:00.449Z,100350
2022-09-06T09:33:00.289Z,100350
2022-09-06T09:34:00.335Z,100350
2022-09-06T09:35:10.206Z,100350
2022-09-06T09:36:01.778Z,100350
2022-09-06T09:38:11.813Z,100329
2022-09-06T09:39:07.340Z,100329
2022-09-06T09:40:00.483Z,100329
2022-09-06T09:41:01.708Z,100329
2022-09-06T09:42:00.714Z,100318
2022-09-06T09:43:10.044Z,100318
2022-09-06T09:44:04.875Z,100318
2022-09-06T09:45:00.914Z,100318
2022-09-06T09:46:10.214Z,100318
2022-09-06T09:47:09.013Z,100318
2022-09-06T09:48:10.193Z,100318
2022-09-06T09:49:00.255Z,100318
2022-09-06T09:50:00.344Z,100318
2022-09-06T09:51:10.176Z,100318
2022-09-06T09:52:06.220Z,100324
2022-09-06T09:53:10.175Z,100324
2022-09-06T09:54:01.696Z,100324
2022-09-06T09:55:02.315Z,100324
2022-09-06T09:56:00.392Z,100324
2022-09-06T09:57:00.350Z,100332
2022-09-06T09:58:00.346Z,100332
2022-09-06T09:59:01.149Z,100332
2022-09-06T10:00:00.544Z,100332
2022-09-06T10:01:08.985Z,100332
2022-09-06T10:02:01.103Z,100340
2022-09-06T10:03:10.109Z,100340
2022-09-06T10:05:05.498Z,100340
2022-09-06T10:06:02.410Z,100340
2022-09-06T10:07:10.556Z,100332
2022-09-06T10:08:00.352Z,100332
2022-09-06T10:09:10.187Z,100332
2022-09-06T10:10:02.500Z,100332
2022-09-06T10:11:00.331Z,100332
2022-09-06T10:12:00.296Z,100318
2022-09-06T10:13:10.178Z,100318
2022-09-06T10:14:10.169Z,100318
2022-09-06T10:15:02.462Z,100318
2022-09-06T10:16:00.376Z,100318
2022-09-06T10:17:00.312Z,100331
2022-09-06T10:18:00.359Z,100331
2022-09-06T10:19:10.167Z,100331
2022-09-06T10:20:03.956Z,100331
2022-09-06T10:21:01.899Z,100331
2022-09-06T10:22:07.563Z,100339
2022-09-06T10:23:03.549Z,100339
2022-09-06T10:25:03.511Z,100339
2022-09-06T10:26:03.549Z,100339
2022-09-06T10:27:00.567Z,100334
2022-09-06T10:28:11.655Z,100334
2022-09-06T10:29:04.357Z,100334
2022-09-06T10:30:02.051Z,100334
2022-09-06T10:31:03.667Z,100334
2022-09-06T10:32:10.177Z,100347
2022-09-06T10:33:00.258Z,100347
2022-09-06T10:34:10.472Z,100347
2022-09-06T10:35:10.184Z,100347
2022-09-06T10:36:02.298Z,100347
2022-09-06T10:37:01.259Z,100334
2022-09-06T10:38:10.168Z,100334
2022-09-06T10:39:04.054Z,100334
2022-09-06T10:40:09.031Z,100334
2022-09-06T10:41:10.176Z,100334
2022-09-06T10:42:07.896Z,100332
2022-09-06T10:43:02.281Z,100332
2022-09-06T10:44:01.132Z,100332
2022-09-06T10:45:01.261Z,100332
2022-09-06T10:46:02.563Z,100332
2022-09-06T10:47:07.814Z,100331
2022-09-06T10:48:10.202Z,100331
2022-09-06T10:49:00.306Z,100331
2022-09-06T10:50:02.281Z,100331
2022-09-06T10:51:05.008Z,100331
2022-09-06T10:52:02.483Z,100322
2022-09-06T10:53:06.297Z,100322
2022-09-06T10:54:09.015Z,100322
2022-09-06T10:55:02.446Z,100322
2022-09-06T10:56:03.725Z,100322
2022-09-06T10:57:05.313Z,100314
2022-09-06T10:58:17.347Z,100314
2022-09-06T10:59:36.318Z,100314
2022-09-06T11:00:02.714Z,100314
2022-09-06T11:01:01.055Z,100314
2022-09-06T11:02:00.359Z,100308
2022-09-06T11:04:04.493Z,100308
2022-09-06T11:06:04.425Z,100308
2022-09-06T11:07:03.915Z,100302
2022-09-06T11:09:10.182Z,100302
2022-09-06T11:10:05.071Z,100302
2022-09-06T11:11:04.106Z,100302
2022-09-06T11:12:05.644Z,100301
2022-09-06T11:13:09.469Z,100301
2022-09-06T11:14:05.725Z,100301
2022-09-06T11:15:02.125Z,100301
2022-09-06T11:16:06.067Z,100301
2022-09-06T11:17:04.553Z,100294
2022-09-06T11:18:05.868Z,100294
2022-09-06T11:19:04.834Z,100294
2022-09-06T11:20:10.305Z,100294
2022-09-06T11:21:10.257Z,100294
2022-09-06T11:22:01.293Z,100286
2022-09-06T11:23:10.203Z,100286
2022-09-06T11:24:00.340Z,100286
2022-09-06T11:25:03.650Z,100286
2022-09-06T11:26:10.255Z,100286
2022-09-06T11:27:07.689Z,100284
2022-09-06T11:28:02.066Z,100284
2022-09-06T11:29:05.606Z,100284
2022-09-06T11:30:01.625Z,100284
2022-09-06T11:31:01.746Z,100284
2022-09-06T11:32:18.299Z,100269
2022-09-06T11:33:08.921Z,100269
2022-09-06T11:34:06.368Z,100269
2022-09-06T11:35:03.149Z,100269
2022-09-06T11:36:10.187Z,100269
2022-09-06T11:37:01.179Z,100270
2022-09-06T11:38:02.766Z,100270
2022-09-06T11:39:01.712Z,100270
2022-09-06T11:40:30.724Z,100270
2022-09-06T11:41:01.482Z,100270
2022-09-06T11:42:00.841Z,100263
2022-09-06T11:43:00.279Z,100263
2022-09-06T11:44:00.983Z,100263
2022-09-06T11:45:00.271Z,100263
2022-09-06T11:46:00.518Z,100263
2022-09-06T11:47:00.459Z,100258
2022-09-06T11:48:10.190Z,100258
2022-09-06T11:49:05.513Z,100258
2022-09-06T11:50:10.207Z,100258
2022-09-06T11:51:03.215Z,100258
2022-09-06T11:52:00.387Z,100250
2022-09-06T11:53:10.185Z,100250
2022-09-06T11:54:08.122Z,100250
2022-09-06T11:55:00.809Z,100250
2022-09-06T11:56:00.317Z,100250
2022-09-06T11:57:08.038Z,100231
2022-09-06T11:58:01.857Z,100231
2022-09-06T11:59:07.146Z,100231
2022-09-06T12:00:02.830Z,100231
2022-09-06T12:01:10.178Z,100231
2022-09-06T12:02:00.296Z,100243
2022-09-06T12:05:00.853Z,100243
2022-09-06T12:06:10.176Z,100243
2022-09-06T12:07:09.869Z,100236
2022-09-06T12:08:10.182Z,100236
2022-09-06T12:09:01.021Z,100236
2022-09-06T12:10:01.198Z,100236
2022-09-06T12:11:01.515Z,100236
2022-09-06T12:12:00.488Z,100232
2022-09-06T12:13:00.310Z,100232
2022-09-06T12:14:00.267Z,100232
2022-09-06T12:15:10.193Z,100232
2022-09-06T12:16:00.406Z,100232
2022-09-06T12:17:00.279Z,100227
2022-09-06T12:18:00.390Z,100227
2022-09-06T12:19:00.825Z,100227
2022-09-06T12:20:01.360Z,100227
2022-09-06T12:21:00.821Z,100227
2022-09-06T12:22:00.279Z,100236
2022-09-06T12:23:00.481Z,100236
2022-09-06T12:24:00.974Z,100236
2022-09-06T12:25:00.270Z,100236
2022-09-06T12:26:03.591Z,100236
2022-09-06T12:27:10.188Z,100242
2022-09-06T12:28:01.482Z,100242
2022-09-06T12:29:00.355Z,100242
2022-09-06T12:30:02.806Z,100242
2022-09-06T12:31:00.829Z,100242
2022-09-06T12:32:00.422Z,100242
2022-09-06T12:33:01.554Z,100242
2022-09-06T12:34:05.669Z,100242
2022-09-06T12:36:10.169Z,100242
2022-09-06T12:37:02.369Z,100241
2022-09-06T12:38:01.695Z,100241
2022-09-06T12:39:07.386Z,100241
2022-09-06T12:40:00.434Z,100241
2022-09-06T12:41:03.146Z,100241
2022-09-06T12:42:02.001Z,100230
2022-09-06T12:43:02.097Z,100230
2022-09-06T12:44:02.879Z,100230
2022-09-06T12:45:02.247Z,100230
2022-09-06T12:46:01.451Z,100230
2022-09-06T12:47:03.575Z,100230
2022-09-06T12:48:05.119Z,100230
2022-09-06T12:49:08.899Z,100230